Time;durP1;ratioP1;P1;durP2;ratioP2;P2;SDS_P1;SDS_P2;PMS_P1;PMS_P2;Temp;Humidity;BMP_temperature;BMP_pressure;BME280_temperature;BME280_humidity;BME280_pressure;Samples;Min_cycle;Max_cycle;Signal;HPM_P1;HPM_P2
2022/03/06 00:01:55;;;;;;;2.30;0.65;;;0.50;56.90;;;;;;4135558;28;20034;-72
2022/03/06 00:04:16;;;;;;;3.33;0.82;;;0.50;57.00;;;;;;4123520;28;20170;-72
2022/03/06 00:06:37;;;;;;;4.90;0.90;;;0.40;57.00;;;;;;4146005;28;20123;-72
2022/03/06 00:08:58;;;;;;;3.30;1.33;;;0.40;57.10;;;;;;4152351;28;20045;-72
2022/03/06 00:11:19;;;;;;;2.95;0.80;;;0.40;57.20;;;;;;4135380;28;20589;-72
2022/03/06 00:13:39;;;;;;;6.85;1.05;;;0.40;57.20;;;;;;4137893;28;20034;-72
2022/03/06 00:16:00;;;;;;;1.88;0.82;;;0.40;57.40;;;;;;4134333;28;20026;-72
2022/03/06 00:18:21;;;;;;;2.03;0.80;;;0.40;57.50;;;;;;4164040;28;20037;-73
2022/03/06 00:20:42;;;;;;;1.83;0.93;;;0.30;57.60;;;;;;4118993;28;20572;-72
2022/03/06 00:23:05;;;;;;;2.20;1.20;;;0.30;57.70;;;;;;4133426;28;20121;-72
2022/03/06 00:25:26;;;;;;;4.28;1.05;;;0.30;57.90;;;;;;4121368;28;20048;-72
2022/03/06 00:27:47;;;;;;;2.40;1.15;;;0.20;58.00;;;;;;4150103;28;20051;-72
2022/03/06 00:30:08;;;;;;;2.25;1.00;;;0.20;58.40;;;;;;4134930;28;20084;-72
2022/03/06 00:32:29;;;;;;;1.50;0.80;;;0.20;58.70;;;;;;4146973;28;20565;-72
2022/03/06 00:34:50;;;;;;;6.05;1.10;;;0.20;59.60;;;;;;4135511;28;20041;-72
2022/03/06 00:37:11;;;;;;;4.57;1.00;;;0.20;59.20;;;;;;4135217;28;20109;-72
2022/03/06 00:39:32;;;;;;;1.13;0.80;;;0.10;59.40;;;;;;4149927;28;20135;-72
2022/03/06 00:41:53;;;;;;;2.20;0.80;;;0.20;59.50;;;;;;4147745;28;20754;-72
2022/03/06 00:44:14;;;;;;;1.92;0.80;;;0.10;59.70;;;;;;4137772;28;20507;-72
2022/03/06 00:46:35;;;;;;;4.63;1.05;;;0.20;59.70;;;;;;4153562;28;20454;-73
2022/03/06 00:48:56;;;;;;;2.55;0.75;;;0.20;59.80;;;;;;4154855;28;20029;-73
2022/03/06 00:51:16;;;;;;;1.38;0.88;;;0.20;59.90;;;;;;4133559;28;20041;-72
2022/03/06 00:53:37;;;;;;;3.38;1.10;;;0.20;59.90;;;;;;4152622;28;20029;-73
2022/03/06 00:55:58;;;;;;;3.28;1.00;;;0.10;59.90;;;;;;4137774;28;20545;-72
2022/03/06 00:58:19;;;;;;;3.72;1.02;;;0.10;59.90;;;;;;4135815;28;20137;-73
2022/03/06 01:00:43;;;;;;;3.17;1.10;;;0.10;59.80;;;;;;4162728;28;20116;-73
2022/03/06 01:03:04;;;;;;;4.40;1.10;;;0.00;59.80;;;;;;4150060;28;20082;-73
2022/03/06 01:05:25;;;;;;;3.95;1.30;;;-0.10;59.80;;;;;;4117100;28;20049;-72
2022/03/06 01:07:46;;;;;;;1.95;0.88;;;-0.10;59.80;;;;;;4133403;28;20041;-72
2022/03/06 01:10:07;;;;;;;1.98;1.10;;;-0.10;59.90;;;;;;4147593;28;20044;-73
2022/03/06 01:12:28;;;;;;;3.67;1.00;;;-0.20;59.80;;;;;;4161336;28;20357;-73
2022/03/06 01:14:49;;;;;;;1.33;0.90;;;-0.30;59.90;;;;;;4150925;28;20565;-72
2022/03/06 01:17:10;;;;;;;3.08;0.98;;;-0.40;59.90;;;;;;4140010;28;20502;-73
2022/03/06 01:19:31;;;;;;;3.70;1.17;;;-0.40;60.10;;;;;;4138791;28;20060;-73
2022/03/06 01:21:52;;;;;;;1.10;0.70;;;-0.50;60.30;;;;;;4138631;28;20279;-73
2022/03/06 01:24:13;;;;;;;1.13;0.70;;;-0.50;60.50;;;;;;4153911;28;20372;-73
2022/03/06 01:26:34;;;;;;;4.47;1.08;;;-0.50;60.70;;;;;;4139060;28;20124;-73
2022/03/06 01:28:55;;;;;;;2.92;1.17;;;-0.60;60.70;;;;;;4136850;28;20041;-72
2022/03/06 01:31:16;;;;;;;2.75;0.90;;;-0.70;60.70;;;;;;4152888;28;20038;-73
2022/03/06 01:33:37;;;;;;;4.38;1.02;;;-0.70;60.80;;;;;;4152179;28;20475;-73
2022/03/06 01:35:58;;;;;;;2.25;1.13;;;-0.80;60.90;;;;;;4136943;28;20675;-73
2022/03/06 01:38:19;;;;;;;2.35;1.20;;;-0.80;61.00;;;;;;4141295;28;20038;-72
2022/03/06 01:40:40;;;;;;;5.18;1.10;;;-0.80;61.10;;;;;;4157604;28;20498;-72
2022/03/06 01:43:00;;;;;;;5.15;1.30;;;-0.90;61.20;;;;;;4141064;28;20113;-72
2022/03/06 01:45:22;;;;;;;3.17;1.02;;;-1.00;61.30;;;;;;4155500;28;20040;-72
2022/03/06 01:47:45;;;;;;;2.78;1.33;;;-1.00;61.30;;;;;;4149622;28;20474;-73
2022/03/06 01:50:08;;;;;;;7.70;1.65;;;-1.10;61.50;;;;;;4132345;28;20033;-72
2022/03/06 01:52:29;;;;;;;5.75;1.40;;;-1.10;61.70;;;;;;4150834;28;20025;-72
2022/03/06 01:54:50;;;;;;;3.95;1.40;;;-1.20;61.80;;;;;;4148575;28;20022;-73
2022/03/06 01:57:11;;;;;;;4.07;1.33;;;-1.30;61.90;;;;;;4152295;28;20176;-72
2022/03/06 01:59:32;;;;;;;4.65;1.33;;;-1.30;62.00;;;;;;4142138;28;20030;-73
2022/03/06 02:01:54;;;;;;;3.30;1.20;;;-1.30;62.10;;;;;;4124838;28;20187;-72
2022/03/06 02:04:15;;;;;;;5.63;1.65;;;-1.40;62.10;;;;;;4159919;28;20029;-72
2022/03/06 02:06:38;;;;;;;4.95;1.42;;;-1.40;62.30;;;;;;4138514;28;20046;-72
2022/03/06 02:08:59;;;;;;;3.33;1.55;;;-1.40;62.30;;;;;;4140697;28;20030;-72
2022/03/06 02:11:21;;;;;;;7.03;1.67;;;-1.50;62.50;;;;;;4153120;28;20060;-73
2022/03/06 02:13:43;;;;;;;2.45;1.08;;;-1.50;62.60;;;;;;4139621;28;20045;-72
2022/03/06 02:16:05;;;;;;;6.30;1.85;;;-1.60;62.80;;;;;;4143231;28;20037;-72
2022/03/06 02:18:26;;;;;;;8.40;1.33;;;-1.60;63.10;;;;;;4159276;28;20049;-72
2022/03/06 02:20:47;;;;;;;4.20;1.65;;;-1.60;63.50;;;;;;4152891;28;20106;-73
2022/03/06 02:23:08;;;;;;;7.15;1.63;;;-1.70;63.90;;;;;;4170134;28;20041;-73
2022/03/06 02:25:33;;;;;;;7.05;1.80;;;-1.70;64.40;;;;;;4140351;28;20491;-73
2022/03/06 02:27:55;;;;;;;4.72;1.27;;;-1.80;64.60;;;;;;4153248;28;20041;-73
2022/03/06 02:30:17;;;;;;;7.60;2.40;;;-1.80;64.90;;;;;;4129723;28;20039;-73
2022/03/06 02:32:38;;;;;;;6.63;1.90;;;-1.80;65.30;;;;;;4141180;28;20034;-73
2022/03/06 02:34:59;;;;;;;7.13;2.00;;;-1.80;65.40;;;;;;4143201;28;20030;-73
2022/03/06 02:37:21;;;;;;;3.15;1.48;;;-1.80;65.70;;;;;;4154873;28;20120;-72
2022/03/06 02:39:43;;;;;;;6.03;1.73;;;-1.90;65.50;;;;;;4142318;28;20526;-73
2022/03/06 02:42:04;;;;;;;4.45;1.70;;;-1.90;65.50;;;;;;4139654;28;20038;-72
2022/03/06 02:44:25;;;;;;;6.13;1.80;;;-1.90;65.40;;;;;;4143021;28;20712;-72
2022/03/06 02:46:46;;;;;;;4.97;1.77;;;-1.90;65.30;;;;;;4156558;28;20046;-72
2022/03/06 02:49:09;;;;;;;5.22;2.17;;;-1.90;65.30;;;;;;4154437;28;20419;-73
2022/03/06 02:51:29;;;;;;;4.20;2.00;;;-1.90;65.30;;;;;;4142525;28;20065;-72
2022/03/06 02:53:50;;;;;;;17.88;2.13;;;-1.90;65.30;;;;;;4151336;28;20035;-73
2022/03/06 02:56:11;;;;;;;4.28;1.92;;;-1.90;65.60;;;;;;4161077;28;20479;-72
2022/03/06 02:58:32;;;;;;;6.95;1.83;;;-1.90;65.90;;;;;;4155262;28;20034;-72
2022/03/06 03:00:53;;;;;;;8.82;2.42;;;-1.90;67.00;;;;;;4157127;28;20037;-72
2022/03/06 03:03:14;;;;;;;6.47;2.40;;;-1.90;66.80;;;;;;4161344;28;20113;-72
2022/03/06 03:05:35;;;;;;;6.07;2.13;;;-1.90;67.00;;;;;;4142133;28;20038;-72
2022/03/06 03:07:56;;;;;;;7.55;2.20;;;-1.90;67.10;;;;;;4139882;28;20042;-72
2022/03/06 03:10:18;;;;;;;8.35;2.38;;;-1.80;67.30;;;;;;4152418;28;20030;-73
2022/03/06 03:12:39;;;;;;;6.53;1.90;;;-1.80;67.30;;;;;;4129555;28;20483;-72
2022/03/06 03:15:00;;;;;;;7.00;2.17;;;-1.80;67.40;;;;;;4145560;28;20053;-72
2022/03/06 03:17:21;;;;;;;12.52;2.03;;;-1.80;67.80;;;;;;4153800;28;20057;-72
2022/03/06 03:19:42;;;;;;;3.67;1.85;;;-1.80;68.10;;;;;;4156943;28;20102;-72
2022/03/06 03:22:03;;;;;;;6.72;2.15;;;-1.80;68.10;;;;;;4142275;28;20499;-72
2022/03/06 03:24:24;;;;;;;4.70;1.65;;;-1.80;68.70;;;;;;4136030;28;20686;-72
2022/03/06 03:26:45;;;;;;;4.45;1.58;;;-1.70;68.00;;;;;;4125883;28;20043;-72
2022/03/06 03:29:06;;;;;;;4.57;1.63;;;-1.70;67.90;;;;;;4166838;28;20568;-72
2022/03/06 03:31:27;;;;;;;5.53;2.28;;;-1.70;67.80;;;;;;4142952;28;20050;-72
2022/03/06 03:33:48;;;;;;;7.72;1.83;;;-1.70;67.80;;;;;;4138497;28;20041;-72
2022/03/06 03:36:09;;;;;;;4.32;1.75;;;-1.70;67.90;;;;;;4128406;28;20086;-73
2022/03/06 03:38:30;;;;;;;7.45;2.38;;;-1.70;68.10;;;;;;4156946;28;20124;-72
2022/03/06 03:40:50;;;;;;;5.15;1.98;;;-1.80;68.20;;;;;;4139635;28;20029;-72
2022/03/06 03:43:11;;;;;;;7.72;2.03;;;-1.70;68.10;;;;;;4138228;28;20180;-72
2022/03/06 03:45:32;;;;;;;4.88;2.03;;;-1.80;68.00;;;;;;4139103;28;20038;-73
2022/03/06 03:47:53;;;;;;;7.07;1.92;;;-1.90;67.70;;;;;;4138440;28;20463;-72
2022/03/06 03:50:14;;;;;;;4.47;2.08;;;-1.90;67.50;;;;;;4138704;28;20038;-72
2022/03/06 03:52:35;;;;;;;5.70;2.17;;;-1.90;67.50;;;;;;4149464;28;20053;-72
2022/03/06 03:54:56;;;;;;;3.55;1.80;;;-2.00;67.30;;;;;;4139633;28;20036;-72
2022/03/06 03:57:17;;;;;;;6.38;1.80;;;-2.00;67.20;;;;;;4141465;28;20084;-72
2022/03/06 03:59:37;;;;;;;4.15;2.03;;;-2.10;67.10;;;;;;4142127;28;20026;-72
2022/03/06 04:01:58;;;;;;;8.38;2.15;;;-2.10;67.30;;;;;;4154063;28;20058;-72
2022/03/06 04:04:20;;;;;;;4.30;1.90;;;-2.20;67.40;;;;;;4144831;28;20594;-72
2022/03/06 04:06:40;;;;;;;4.03;1.52;;;-2.20;67.30;;;;;;4138190;28;20053;-72
2022/03/06 04:09:02;;;;;;;4.63;1.90;;;-2.30;67.10;;;;;;4154802;28;20022;-73
2022/03/06 04:11:23;;;;;;;4.03;1.50;;;-2.40;67.10;;;;;;4140124;28;20448;-72
2022/03/06 04:13:44;;;;;;;4.80;1.83;;;-2.40;67.10;;;;;;4149469;28;20025;-72
2022/03/06 04:16:05;;;;;;;5.72;1.60;;;-2.50;67.20;;;;;;4138641;28;20049;-72
2022/03/06 04:18:26;;;;;;;4.78;1.95;;;-2.50;67.20;;;;;;4156132;28;20455;-72
2022/03/06 04:20:47;;;;;;;4.82;2.30;;;-2.60;67.30;;;;;;4138942;28;20114;-72
2022/03/06 04:23:08;;;;;;;7.07;2.00;;;-2.60;67.40;;;;;;4150228;28;20044;-72
2022/03/06 04:25:28;;;;;;;12.18;2.88;;;-2.70;67.60;;;;;;4165343;28;20128;-72
2022/03/06 04:27:49;;;;;;;5.43;2.25;;;-2.70;67.70;;;;;;4150607;28;20498;-72
2022/03/06 04:30:11;;;;;;;5.68;1.90;;;-2.80;68.20;;;;;;4139060;28;20037;-72
2022/03/06 04:32:32;;;;;;;8.68;2.35;;;-2.80;68.40;;;;;;4152522;28;20065;-72
2022/03/06 04:34:53;;;;;;;3.35;1.98;;;-2.90;68.80;;;;;;4153921;28;20041;-72
2022/03/06 04:37:14;;;;;;;3.25;1.65;;;-2.90;68.80;;;;;;4153227;28;20068;-72
2022/03/06 04:39:34;;;;;;;4.22;1.75;;;-2.90;68.90;;;;;;4150591;28;20690;-72
2022/03/06 04:41:55;;;;;;;5.57;1.88;;;-3.00;68.80;;;;;;4155300;28;20061;-72
2022/03/06 04:44:16;;;;;;;4.22;1.35;;;-3.00;68.90;;;;;;4166261;28;20030;-72
2022/03/06 04:46:37;;;;;;;5.10;1.70;;;-3.00;69.10;;;;;;4152296;28;20048;-72
2022/03/06 04:48:58;;;;;;;5.10;2.42;;;-3.00;69.20;;;;;;4156737;28;20045;-72
2022/03/06 04:51:19;;;;;;;10.73;1.95;;;-3.00;69.40;;;;;;4140847;28;20034;-72
2022/03/06 04:53:40;;;;;;;5.18;2.10;;;-3.00;70.10;;;;;;4155193;28;20498;-72
2022/03/06 04:56:01;;;;;;;4.32;2.00;;;-3.00;70.30;;;;;;4163223;28;20515;-72
2022/03/06 04:58:22;;;;;;;8.15;2.08;;;-3.10;70.40;;;;;;4154742;28;20041;-72
2022/03/06 05:00:42;;;;;;;4.75;1.67;;;-3.00;70.50;;;;;;4140430;28;20030;-72
2022/03/06 05:03:03;;;;;;;6.75;1.83;;;-3.00;70.40;;;;;;4138469;28;20037;-72
2022/03/06 05:05:24;;;;;;;4.57;1.48;;;-3.00;70.30;;;;;;4155755;28;20113;-72
2022/03/06 05:07:45;;;;;;;3.45;1.73;;;-3.10;70.10;;;;;;4165598;28;20068;-72
2022/03/06 05:10:09;;;;;;;5.47;2.20;;;-3.00;69.90;;;;;;4127521;28;20031;-72
2022/03/06 05:12:30;;;;;;;3.42;1.45;;;-3.00;69.80;;;;;;4155764;28;20029;-72
2022/03/06 05:14:51;;;;;;;3.25;1.48;;;-3.10;69.50;;;;;;4141780;28;20415;-72
2022/03/06 05:17:13;;;;;;;2.72;1.40;;;-3.10;69.40;;;;;;4142644;28;20041;-72
2022/03/06 05:19:34;;;;;;;4.32;1.80;;;-3.10;69.30;;;;;;4164710;28;20036;-72
2022/03/06 05:21:54;;;;;;;4.40;2.20;;;-3.20;69.20;;;;;;4167572;28;20454;-72
2022/03/06 05:24:15;;;;;;;9.35;1.60;;;-3.20;69.20;;;;;;4155171;28;20044;-72
2022/03/06 05:26:36;;;;;;;7.10;2.40;;;-3.20;69.20;;;;;;4159149;28;20050;-72
2022/03/06 05:28:57;;;;;;;5.03;1.80;;;-3.20;69.40;;;;;;4154308;28;20076;-72
2022/03/06 05:31:18;;;;;;;5.88;2.00;;;-3.30;69.50;;;;;;4127811;28;20626;-72
2022/03/06 05:33:39;;;;;;;4.57;1.95;;;-3.30;69.80;;;;;;4142406;28;20491;-72
2022/03/06 05:36:00;;;;;;;7.30;2.25;;;-3.30;70.20;;;;;;4142063;28;20037;-72
2022/03/06 05:38:21;;;;;;;6.60;2.10;;;-3.30;70.70;;;;;;4170639;28;20086;-72
2022/03/06 05:40:42;;;;;;;4.82;2.03;;;-3.30;70.90;;;;;;4158647;28;20044;-72
2022/03/06 05:43:03;;;;;;;5.78;2.28;;;-3.30;71.10;;;;;;4156253;28;20041;-72
2022/03/06 05:45:24;;;;;;;8.43;2.20;;;-3.30;71.90;;;;;;4139422;28;20427;-73
2022/03/06 05:47:44;;;;;;;5.97;2.13;;;-3.30;72.30;;;;;;4139189;28;20085;-72
2022/03/06 05:50:07;;;;;;;6.15;2.00;;;-3.20;72.90;;;;;;4147386;28;20040;-72
2022/03/06 05:52:28;;;;;;;6.00;2.45;;;-3.20;73.20;;;;;;4156124;28;20105;-73
2022/03/06 05:54:48;;;;;;;6.38;2.08;;;-3.20;73.20;;;;;;4140504;28;20037;-72
2022/03/06 05:57:09;;;;;;;6.45;2.10;;;-3.10;73.20;;;;;;4143962;28;20026;-73
2022/03/06 05:59:30;;;;;;;10.32;1.80;;;-3.10;72.90;;;;;;4139770;28;20026;-72
2022/03/06 06:01:51;;;;;;;5.85;1.90;;;-3.00;72.80;;;;;;4156382;28;20483;-72
2022/03/06 06:04:15;;;;;;;5.57;1.92;;;-3.00;72.50;;;;;;4139049;28;20084;-72
2022/03/06 06:06:36;;;;;;;3.28;1.38;;;-3.00;72.30;;;;;;4144893;28;20789;-72
2022/03/06 06:08:56;;;;;;;4.53;1.70;;;-3.00;72.10;;;;;;4151661;28;20038;-72
2022/03/06 06:11:18;;;;;;;9.75;2.05;;;-3.00;71.80;;;;;;4144118;28;20121;-73
2022/03/06 06:13:39;;;;;;;3.35;1.65;;;-3.00;71.70;;;;;;4157506;28;20167;-72
2022/03/06 06:16:01;;;;;;;6.60;1.73;;;-2.90;71.70;;;;;;4156467;28;20029;-72
2022/03/06 06:18:22;;;;;;;5.25;1.88;;;-2.90;71.80;;;;;;4141404;28;20034;-72
2022/03/06 06:20:43;;;;;;;5.07;1.55;;;-2.90;72.30;;;;;;4155295;28;20502;-72
2022/03/06 06:23:04;;;;;;;5.75;1.65;;;-2.80;72.80;;;;;;4157442;28;20083;-72
2022/03/06 06:25:25;;;;;;;9.98;3.70;;;-2.80;73.30;;;;;;4127130;28;20545;-73
2022/03/06 06:27:46;;;;;;;20.30;8.50;;;-2.80;73.60;;;;;;4152028;28;20133;-72
2022/03/06 06:30:08;;;;;;;53.17;22.75;;;-2.70;73.80;;;;;;4137858;28;20725;-72
2022/03/06 06:32:28;;;;;;;13.07;5.43;;;-2.60;74.00;;;;;;4154732;28;20044;-72
2022/03/06 06:34:49;;;;;;;363.65;120.82;;;-2.50;74.80;;;;;;4157371;28;20322;-72
2022/03/06 06:37:11;;;;;;;50.15;21.02;;;-2.40;74.20;;;;;;4157607;28;20025;-72
2022/03/06 06:39:32;;;;;;;38.20;16.30;;;-2.30;74.20;;;;;;4144338;28;20038;-72
2022/03/06 06:41:53;;;;;;;15.10;7.45;;;-2.20;74.40;;;;;;4156255;28;20129;-72
2022/03/06 06:44:14;;;;;;;10.25;4.50;;;-2.10;74.40;;;;;;4139871;28;20109;-73
2022/03/06 06:46:35;;;;;;;11.63;4.35;;;-2.00;74.50;;;;;;4168969;28;20037;-72
2022/03/06 06:48:56;;;;;;;10.60;2.15;;;-1.90;74.80;;;;;;4131799;28;20114;-72
2022/03/06 06:51:16;;;;;;;9.35;2.17;;;-1.80;74.80;;;;;;4170540;28;20037;-72
2022/03/06 06:53:37;;;;;;;5.65;1.77;;;-1.80;74.70;;;;;;4131085;28;20038;-72
2022/03/06 06:55:58;;;;;;;5.97;1.73;;;-1.70;74.90;;;;;;4139502;28;20040;-72
2022/03/06 06:58:19;;;;;;;4.50;1.77;;;-1.60;74.90;;;;;;4160121;28;20605;-72
2022/03/06 07:00:41;;;;;;;7.47;1.98;;;-1.50;74.80;;;;;;4154707;28;20045;-73
2022/03/06 07:03:02;;;;;;;8.32;1.80;;;-1.40;74.70;;;;;;4144044;28;20061;-72
2022/03/06 07:05:22;;;;;;;6.82;1.42;;;-1.30;74.70;;;;;;4167839;28;20029;-72
2022/03/06 07:07:43;;;;;;;6.28;1.80;;;-1.30;74.50;;;;;;4142381;28;20100;-73
2022/03/06 07:10:05;;;;;;;5.85;1.80;;;-1.20;74.40;;;;;;4160260;28;20502;-73
2022/03/06 07:12:26;;;;;;;5.97;1.98;;;-1.10;74.40;;;;;;4137868;28;20049;-72
2022/03/06 07:14:46;;;;;;;4.72;1.98;;;-1.00;74.20;;;;;;4157239;28;20025;-72
2022/03/06 07:17:07;;;;;;;5.13;1.85;;;-1.00;74.10;;;;;;4167615;28;20041;-73
2022/03/06 07:19:28;;;;;;;5.05;2.10;;;-0.90;73.90;;;;;;4154997;28;20044;-73
2022/03/06 07:21:55;;;;;;;2.90;1.50;;;-0.80;73.80;;;;;;4151422;28;20076;-73
2022/03/06 07:24:16;;;;;;;2.95;1.40;;;-0.80;73.60;;;;;;4149509;28;20692;-72
2022/03/06 07:26:37;;;;;;;8.80;2.00;;;-0.70;73.50;;;;;;4165963;28;20057;-72
2022/03/06 07:28:58;;;;;;;5.85;2.10;;;-0.60;73.30;;;;;;4167213;28;20374;-72
2022/03/06 07:31:19;;;;;;;5.97;1.88;;;-0.50;73.10;;;;;;4149985;28;20069;-72
2022/03/06 07:33:40;;;;;;;9.73;2.20;;;-0.50;72.90;;;;;;4152407;28;20075;-73
2022/03/06 07:36:01;;;;;;;7.63;2.25;;;-0.40;72.80;;;;;;4145204;28;20029;-73
2022/03/06 07:38:22;;;;;;;6.20;2.00;;;-0.30;72.50;;;;;;4154379;28;20176;-73
2022/03/06 07:40:44;;;;;;;5.30;1.75;;;-0.30;72.20;;;;;;4166565;28;20449;-72
2022/03/06 07:43:04;;;;;;;7.05;1.80;;;-0.20;72.00;;;;;;4115988;28;20519;-72
2022/03/06 07:45:28;;;;;;;5.38;1.90;;;-0.10;71.80;;;;;;4146147;28;20045;-73
2022/03/06 07:47:49;;;;;;;6.93;2.22;;;-0.10;71.50;;;;;;4139191;28;20509;-73
2022/03/06 07:50:11;;;;;;;7.57;2.08;;;0.00;71.20;;;;;;4138884;28;20030;-73
2022/03/06 07:52:32;;;;;;;10.55;2.13;;;0.00;70.90;;;;;;4138130;28;20575;-73
2022/03/06 07:54:53;;;;;;;4.90;1.70;;;0.10;70.70;;;;;;4153072;28;20029;-73
2022/03/06 07:57:14;;;;;;;6.07;1.98;;;0.20;70.50;;;;;;4151287;28;20029;-73
2022/03/06 07:59:36;;;;;;;4.80;1.52;;;0.20;70.20;;;;;;4138789;28;20048;-73
2022/03/06 08:01:57;;;;;;;8.13;1.98;;;0.30;70.10;;;;;;4140175;28;20767;-72
2022/03/06 08:04:18;;;;;;;7.20;2.13;;;0.40;69.90;;;;;;4152077;28;20490;-72
2022/03/06 08:06:38;;;;;;;4.60;1.80;;;0.50;70.20;;;;;;4152348;28;20488;-72
2022/03/06 08:09:04;;;;;;;8.40;2.22;;;0.50;68.80;;;;;;4153794;28;20033;-72
2022/03/06 08:11:31;;;;;;;5.68;1.65;;;0.60;68.50;;;;;;4154553;28;20104;-72
2022/03/06 08:13:52;;;;;;;8.70;1.60;;;0.70;68.20;;;;;;4167795;28;20035;-73
2022/03/06 08:16:13;;;;;;;5.57;1.60;;;0.70;67.90;;;;;;4152689;28;20144;-72
2022/03/06 08:18:34;;;;;;;5.43;1.88;;;0.80;67.60;;;;;;4151643;28;20041;-72
2022/03/06 08:20:55;;;;;;;7.00;1.80;;;0.90;67.30;;;;;;4146247;28;20184;-71
2022/03/06 08:23:16;;;;;;;4.18;1.42;;;0.90;66.70;;;;;;4151071;28;20076;-72
2022/03/06 08:25:36;;;;;;;4.43;1.90;;;1.00;66.30;;;;;;4165212;28;20116;-73
2022/03/06 08:27:57;;;;;;;8.32;1.90;;;1.10;66.00;;;;;;4150821;28;20140;-73
2022/03/06 08:30:18;;;;;;;8.02;1.70;;;1.10;65.70;;;;;;4154294;28;20095;-72
2022/03/06 08:32:39;;;;;;;8.02;1.67;;;1.20;65.30;;;;;;4153162;28;20033;-72
2022/03/06 08:35:00;;;;;;;6.70;1.85;;;1.20;65.10;;;;;;4153115;28;20022;-72
2022/03/06 08:37:21;;;;;;;3.58;1.60;;;1.30;64.80;;;;;;4141454;28;20080;-73
2022/03/06 08:39:42;;;;;;;5.20;1.35;;;1.40;64.60;;;;;;4139616;28;20475;-73
2022/03/06 08:42:04;;;;;;;13.77;1.60;;;1.40;64.50;;;;;;4151939;28;20029;-73
2022/03/06 08:44:25;;;;;;;7.47;1.52;;;1.50;64.40;;;;;;4143515;28;20718;-73
2022/03/06 08:46:46;;;;;;;8.45;1.58;;;1.50;64.10;;;;;;4145552;28;20085;-72
2022/03/06 08:49:07;;;;;;;7.72;1.95;;;1.60;64.00;;;;;;4155664;28;20033;-73
2022/03/06 08:51:27;;;;;;;5.78;1.80;;;1.60;63.80;;;;;;4144755;28;20041;-72
2022/03/06 08:53:48;;;;;;;5.63;1.90;;;1.60;63.40;;;;;;4143985;28;20030;-73
2022/03/06 08:56:09;;;;;;;6.25;1.80;;;1.70;63.10;;;;;;4142822;28;20041;-72
2022/03/06 08:58:30;;;;;;;5.85;1.83;;;1.70;63.20;;;;;;4160634;28;20026;-73
2022/03/06 09:00:51;;;;;;;5.00;1.52;;;1.80;63.50;;;;;;4145226;28;20274;-72
2022/03/06 09:03:12;;;;;;;2.67;1.48;;;1.90;63.70;;;;;;4143036;28;20462;-73
2022/03/06 09:05:38;;;;;;;5.55;2.10;;;2.00;63.90;;;;;;4143506;28;20061;-73
2022/03/06 09:08:00;;;;;;;7.03;2.25;;;2.10;64.20;;;;;;4157864;28;20188;-73
2022/03/06 09:10:21;;;;;;;3.05;1.55;;;2.20;64.00;;;;;;4158549;28;20038;-72
2022/03/06 09:12:42;;;;;;;4.90;1.88;;;2.40;63.50;;;;;;4157953;28;20038;-72
2022/03/06 09:15:03;;;;;;;9.70;2.00;;;2.50;63.30;;;;;;4160468;28;20152;-73
2022/03/06 09:17:24;;;;;;;5.38;2.17;;;2.60;63.30;;;;;;4158881;28;20033;-73
2022/03/06 09:19:45;;;;;;;7.22;2.08;;;2.70;63.30;;;;;;4161363;28;20675;-72
2022/03/06 09:22:06;;;;;;;7.50;2.30;;;2.80;62.70;;;;;;4158497;28;20042;-73
2022/03/06 09:24:27;;;;;;;6.25;2.20;;;2.90;62.30;;;;;;4156073;28;20478;-72
2022/03/06 09:26:48;;;;;;;8.27;2.05;;;3.00;61.90;;;;;;4157294;28;20092;-73
2022/03/06 09:29:09;;;;;;;4.90;2.00;;;3.10;61.60;;;;;;4157778;28;20112;-73
2022/03/06 09:31:30;;;;;;;4.22;1.80;;;3.20;61.40;;;;;;4145289;28;20496;-73
2022/03/06 09:33:51;;;;;;;7.28;2.88;;;3.30;61.20;;;;;;4142827;28;20055;-73
2022/03/06 09:36:12;;;;;;;6.55;2.05;;;3.30;60.10;;;;;;4156257;28;20044;-72
2022/03/06 09:38:33;;;;;;;4.15;2.28;;;3.30;59.20;;;;;;4158556;28;20079;-73
2022/03/06 09:40:54;;;;;;;6.32;2.13;;;3.40;59.10;;;;;;4158351;28;20045;-73
2022/03/06 09:43:16;;;;;;;17.90;2.45;;;3.40;58.90;;;;;;4158392;28;20053;-73
2022/03/06 09:45:37;;;;;;;7.22;2.30;;;3.50;58.90;;;;;;4155227;28;20037;-73
2022/03/06 09:47:59;;;;;;;9.38;2.10;;;3.50;58.70;;;;;;4121603;28;20046;-74
2022/03/06 09:50:20;;;;;;;5.72;2.20;;;3.50;58.40;;;;;;4166653;28;20037;-73
2022/03/06 09:52:41;;;;;;;8.45;2.45;;;3.60;58.20;;;;;;4154835;28;20069;-73
2022/03/06 09:55:02;;;;;;;25.42;8.23;;;3.60;57.20;;;;;;4155456;28;20037;-73
2022/03/06 09:57:24;;;;;;;168.75;61.53;;;3.60;57.00;;;;;;4151688;28;20029;-73
2022/03/06 09:59:45;;;;;;;92.80;42.53;;;3.60;57.40;;;;;;4141931;28;20034;-73
2022/03/06 10:02:06;;;;;;;16.50;7.20;;;3.70;57.80;;;;;;4167283;28;20580;-73
2022/03/06 10:04:29;;;;;;;12.95;4.82;;;3.80;58.00;;;;;;4156621;28;20037;-73
2022/03/06 10:07:09;;;;;;;11.23;3.72;;;3.80;57.60;;;;;;4146534;28;20037;-73
2022/03/06 10:09:31;;;;;;;8.57;3.40;;;3.90;57.40;;;;;;4167278;28;20029;-73
2022/03/06 10:11:54;;;;;;;8.23;2.70;;;3.90;57.10;;;;;;4154453;28;20063;-73
2022/03/06 10:14:39;;;;;;;4.88;2.10;;;3.90;57.10;;;;;;4144200;28;20163;-73
2022/03/06 10:17:20;;;;;;;9.45;2.83;;;3.90;57.40;;;;;;4155049;28;20038;-73
2022/03/06 10:19:50;;;;;;;10.98;2.60;;;4.00;57.90;;;;;;4137484;28;20632;-73
2022/03/06 10:22:12;;;;;;;10.80;2.58;;;4.10;58.00;;;;;;4156125;28;20060;-73
2022/03/06 10:24:33;;;;;;;5.10;2.47;;;4.10;58.40;;;;;;4158359;28;20490;-73
2022/03/06 10:26:53;;;;;;;6.88;2.97;;;4.10;58.80;;;;;;4142120;28;20061;-73
2022/03/06 10:29:14;;;;;;;9.23;2.97;;;4.20;58.50;;;;;;4156783;28;20401;-73
2022/03/06 10:31:35;;;;;;;10.88;2.83;;;4.20;58.70;;;;;;4157338;28;20025;-73
2022/03/06 10:34:07;;;;;;;9.48;3.47;;;4.20;59.00;;;;;;4140244;28;20113;-73
2022/03/06 10:36:41;;;;;;;6.85;2.70;;;4.20;59.10;;;;;;4157259;28;20503;-73
2022/03/06 10:39:08;;;;;;;10.52;2.83;;;4.20;59.10;;;;;;4141245;28;20122;-73
2022/03/06 10:41:36;;;;;;;7.65;2.72;;;4.20;59.60;;;;;;4158082;28;20033;-73
2022/03/06 10:43:57;;;;;;;7.53;2.67;;;4.30;59.80;;;;;;4154057;28;20042;-72
2022/03/06 10:46:19;;;;;;;7.13;2.90;;;4.30;59.70;;;;;;4168320;28;20418;-72
2022/03/06 10:48:41;;;;;;;5.68;2.65;;;4.40;59.90;;;;;;4141615;28;20038;-72
2022/03/06 10:51:04;;;;;;;5.43;2.35;;;4.40;60.90;;;;;;4156980;28;20477;-71
2022/03/06 10:53:25;;;;;;;9.60;3.00;;;4.40;60.40;;;;;;4157542;28;20139;-74
2022/03/06 10:55:46;;;;;;;10.15;2.85;;;4.50;60.80;;;;;;4155579;28;20233;-71
2022/03/06 10:58:07;;;;;;;7.70;2.95;;;4.50;60.30;;;;;;4143686;28;20077;-72
2022/03/06 11:00:28;;;;;;;11.23;2.50;;;4.50;60.60;;;;;;4140090;28;20887;-72
2022/03/06 11:02:49;;;;;;;10.05;2.97;;;4.60;60.70;;;;;;4149766;28;20065;-72
2022/03/06 11:05:10;;;;;;;4.72;1.92;;;4.50;60.80;;;;;;4155065;28;20706;-72
2022/03/06 11:07:31;;;;;;;9.15;3.03;;;4.60;60.50;;;;;;4154680;28;20063;-73
2022/03/06 11:09:52;;;;;;;12.45;2.60;;;4.70;60.40;;;;;;4122681;28;20396;-73
2022/03/06 11:12:13;;;;;;;6.30;2.60;;;4.70;60.80;;;;;;4156525;28;20453;-73
2022/03/06 11:14:34;;;;;;;5.45;2.13;;;4.70;61.00;;;;;;4145251;28;20037;-73
2022/03/06 11:16:55;;;;;;;13.55;2.83;;;4.70;61.70;;;;;;4139491;28;20033;-73
2022/03/06 11:19:16;;;;;;;6.60;3.10;;;4.70;60.80;;;;;;4142813;28;20030;-74
2022/03/06 11:21:42;;;;;;;5.45;2.55;;;4.70;60.80;;;;;;4151519;28;20478;-73
2022/03/06 11:24:36;;;;;;;8.35;2.85;;;4.70;61.00;;;;;;4147823;28;20037;-73
2022/03/06 11:27:34;;;;;;;6.45;2.20;;;4.70;61.10;;;;;;4100000;28;20102;-73
2022/03/06 11:30:05;;;;;;;6.18;2.15;;;4.70;61.10;;;;;;4154290;28;20030;-73
2022/03/06 11:32:28;;;;;;;6.85;3.00;;;4.70;60.90;;;;;;4160815;28;20040;-73
2022/03/06 11:34:50;;;;;;;7.13;2.40;;;4.70;60.10;;;;;;4150383;28;20033;-73
2022/03/06 11:37:15;;;;;;;9.23;2.80;;;4.70;60.50;;;;;;4124350;28;20056;-73
2022/03/06 11:39:36;;;;;;;9.60;2.38;;;4.70;61.00;;;;;;4150868;28;20052;-73
2022/03/06 11:41:57;;;;;;;8.43;2.40;;;4.70;61.20;;;;;;4148619;28;20037;-73
2022/03/06 11:44:34;;;;;;;10.43;2.80;;;4.80;61.30;;;;;;4137774;28;20026;-73
2022/03/06 11:46:55;;;;;;;8.60;2.38;;;4.80;60.90;;;;;;4147396;28;20068;-73
2022/03/06 11:49:16;;;;;;;7.10;2.33;;;4.80;60.60;;;;;;4149008;28;20084;-73
2022/03/06 11:51:40;;;;;;;5.60;1.98;;;4.80;60.30;;;;;;4149362;28;20044;-73
2022/03/06 11:54:08;;;;;;;;;;;4.90;60.80;;;;;;4154669;28;20079;-73
2022/03/06 11:56:35;;;;;;;8.38;2.72;;;4.90;60.40;;;;;;4146876;28;19962;-73
2022/03/06 11:58:56;;;;;;;7.60;2.75;;;4.90;60.40;;;;;;4146149;28;20469;-73
2022/03/06 12:01:27;;;;;;;10.43;3.53;;;4.90;60.10;;;;;;4149637;28;20057;-73
2022/03/06 12:03:48;;;;;;;10.23;2.63;;;4.90;60.00;;;;;;4138629;28;20056;-73
2022/03/06 12:06:13;;;;;;;8.73;2.50;;;4.90;59.90;;;;;;4149234;28;20034;-73
2022/03/06 12:08:40;;;;;;;7.85;3.15;;;4.90;60.60;;;;;;4151457;28;20033;-73
2022/03/06 12:11:01;;;;;;;8.65;2.90;;;4.90;61.00;;;;;;4134024;28;20064;-73
2022/03/06 12:13:23;;;;;;;7.35;2.75;;;4.90;60.80;;;;;;4137421;28;20044;-73
2022/03/06 12:16:04;;;;;;;11.90;3.13;;;4.90;61.40;;;;;;4138833;28;20458;-73
2022/03/06 12:18:25;;;;;;;8.32;3.45;;;4.80;60.80;;;;;;4135053;28;20041;-73
2022/03/06 12:20:46;;;;;;;20.27;3.38;;;4.80;61.00;;;;;;4133252;28;20041;-73
2022/03/06 12:23:20;;;;;;;20.77;3.38;;;4.90;61.30;;;;;;4149645;28;20544;-73